createdAt,value
2022-09-13T00:00:53.717Z,79.67
2022-09-13T00:03:22.329Z,79.76
2022-09-13T00:05:50.670Z,79.90
2022-09-13T00:08:19.498Z,79.95
2022-09-13T00:10:49.545Z,80.18
2022-09-13T00:13:18.425Z,80.29
2022-09-13T00:15:48.123Z,79.96
2022-09-13T00:18:16.799Z,80.54
2022-09-13T00:20:44.958Z,80.62
2022-09-13T00:23:14.039Z,80.85
2022-09-13T00:25:42.341Z,79.58
2022-09-13T00:28:12.038Z,77.75
2022-09-13T00:30:40.130Z,74.63
2022-09-13T00:33:08.198Z,73.60
2022-09-13T00:35:36.333Z,73.51
2022-09-13T00:38:05.467Z,72.01
2022-09-13T00:40:38.879Z,71.75
2022-09-13T00:43:15.390Z,71.58
2022-09-13T00:45:43.807Z,71.58
2022-09-13T00:48:21.652Z,71.13
2022-09-13T00:50:54.075Z,69.98
2022-09-13T00:53:27.870Z,70.47
2022-09-13T00:56:00.498Z,70.45
2022-09-13T00:58:33.753Z,69.91
2022-09-13T01:01:05.306Z,70.34
2022-09-13T01:03:36.846Z,70.23
2022-09-13T01:06:10.415Z,69.91
2022-09-13T01:08:41.838Z,68.77
2022-09-13T01:11:17.464Z,68.58
2022-09-13T01:13:48.208Z,68.86
2022-09-13T01:16:16.476Z,68.19
2022-09-13T01:18:44.825Z,68.77
2022-09-13T01:21:49.504Z,68.48
2022-09-13T01:24:49.583Z,68.69
2022-09-13T01:27:31.212Z,68.30
2022-09-13T01:30:07.326Z,68.16
2022-09-13T01:32:45.174Z,68.65
2022-09-13T01:35:23.067Z,68.51
2022-09-13T01:37:59.105Z,68.16
2022-09-13T01:40:44.690Z,68.45
2022-09-13T01:43:26.874Z,68.33
2022-09-13T01:46:05.254Z,68.32
2022-09-13T01:48:49.139Z,68.31
2022-09-13T01:51:25.438Z,67.65
2022-09-13T01:54:15.895Z,67.66
2022-09-13T01:56:52.731Z,67.90
2022-09-13T01:59:27.221Z,67.37
2022-09-13T02:02:02.719Z,67.37
2022-09-13T02:04:38.601Z,67.45
2022-09-13T02:07:12.107Z,67.77
2022-09-13T02:09:44.922Z,67.88
2022-09-13T02:12:23.307Z,67.80
2022-09-13T02:14:58.029Z,68.01
2022-09-13T02:17:32.493Z,68.41
2022-09-13T02:20:04.868Z,69.09
2022-09-13T02:22:36.592Z,68.64
2022-09-13T02:25:11.448Z,69.04
2022-09-13T02:27:42.357Z,69.02
2022-09-13T02:30:12.664Z,69.11
2022-09-13T02:32:46.011Z,69.31
2022-09-13T02:35:20.149Z,69.91
2022-09-13T02:37:53.671Z,70.13
2022-09-13T02:40:27.390Z,70.45
2022-09-13T02:43:02.361Z,71.21
2022-09-13T02:45:36.324Z,70.47
2022-09-13T02:48:12.794Z,70.94
2022-09-13T02:50:50.970Z,71.26
2022-09-13T02:53:29.244Z,71.23
2022-09-13T02:56:05.712Z,71.86
2022-09-13T02:58:41.269Z,71.73
2022-09-13T03:01:09.544Z,71.36
2022-09-13T03:03:39.276Z,71.25
2022-09-13T03:06:08.128Z,71.69
2022-09-13T03:08:37.726Z,71.60
2022-09-13T03:11:15.859Z,71.25
2022-09-13T03:14:17.634Z,70.31
2022-09-13T03:17:00.852Z,70.71
2022-09-13T03:19:44.433Z,69.96
2022-09-13T03:22:38.382Z,70.16
2022-09-13T03:25:15.043Z,69.60
2022-09-13T03:27:53.774Z,68.96
2022-09-13T03:30:22.007Z,68.74
2022-09-13T03:32:54.287Z,67.81
2022-09-13T03:35:32.116Z,67.48
2022-09-13T03:38:06.640Z,67.19
2022-09-13T03:40:43.822Z,67.58
2022-09-13T03:43:16.372Z,67.49
2022-09-13T03:45:49.950Z,67.93
2022-09-13T03:48:19.960Z,67.61
2022-09-13T03:50:50.814Z,67.76
2022-09-13T03:53:23.455Z,68.10
2022-09-13T03:55:52.149Z,69.10
2022-09-13T03:58:22.189Z,69.88
2022-09-13T04:00:50.419Z,69.65
2022-09-13T04:03:18.755Z,69.80
2022-09-13T04:05:47.707Z,69.68
2022-09-13T04:08:17.269Z,69.96
2022-09-13T04:10:45.391Z,69.97
2022-09-13T04:13:13.484Z,69.46
2022-09-13T04:15:41.625Z,68.45
2022-09-13T04:18:11.486Z,67.60
2022-09-13T04:20:39.604Z,68.53
2022-09-13T04:23:07.882Z,68.72
2022-09-13T04:25:40.636Z,68.59
2022-09-13T04:28:09.617Z,68.22
2022-09-13T04:30:42.036Z,68.75
2022-09-13T04:33:10.911Z,68.04
2022-09-13T04:35:39.721Z,67.10
2022-09-13T04:38:08.055Z,64.69
2022-09-13T04:40:39.217Z,63.91
2022-09-13T04:43:07.286Z,64.20
2022-09-13T04:45:35.691Z,62.72
2022-09-13T04:48:04.278Z,62.79
2022-09-13T04:50:32.352Z,62.93
2022-09-13T04:53:00.455Z,63.00
2022-09-13T04:55:28.888Z,62.91
2022-09-13T04:57:58.417Z,62.46
2022-09-13T05:00:27.287Z,61.88
2022-09-13T05:02:58.905Z,61.96
2022-09-13T05:05:28.932Z,61.15
2022-09-13T05:07:57.260Z,61.39
2022-09-13T05:10:25.596Z,60.60
2022-09-13T05:12:54.301Z,59.84
2022-09-13T05:15:23.852Z,59.56
2022-09-13T05:17:51.960Z,58.81
2022-09-13T05:20:20.094Z,58.76
2022-09-13T05:22:48.297Z,57.82
2022-09-13T05:25:16.618Z,54.56
2022-09-13T05:27:46.960Z,49.80
2022-09-13T05:30:15.260Z,46.82
2022-09-13T05:32:44.794Z,46.23
2022-09-13T05:35:13.831Z,44.23
2022-09-13T05:37:41.929Z,42.83
2022-09-13T05:40:12.227Z,42.69
2022-09-13T05:42:40.900Z,42.02
2022-09-13T05:45:10.527Z,41.62
2022-09-13T05:47:38.808Z,40.68
2022-09-13T05:50:15.430Z,39.44
2022-09-13T05:52:53.342Z,39.45
2022-09-13T05:55:23.051Z,40.65
2022-09-13T05:57:51.219Z,39.27
2022-09-13T06:00:19.574Z,37.74
2022-09-13T06:02:47.693Z,38.64
2022-09-13T06:05:17.352Z,35.94
2022-09-13T06:07:45.488Z,35.61
2022-09-13T06:10:13.694Z,35.44
2022-09-13T06:12:42.139Z,34.15
2022-09-13T06:15:12.824Z,34.72
2022-09-13T06:17:40.982Z,33.92
2022-09-13T06:20:10.762Z,33.86
2022-09-13T06:22:40.263Z,34.57
2022-09-13T06:25:09.510Z,34.20
2022-09-13T06:27:37.718Z,33.58
2022-09-13T06:30:08.926Z,33.84
2022-09-13T06:32:37.017Z,33.07
2022-09-13T06:35:05.474Z,32.64
2022-09-13T06:37:33.571Z,33.89
2022-09-13T06:40:04.644Z,31.97
2022-09-13T06:42:35.373Z,32.37
2022-09-13T06:45:03.762Z,33.18
2022-09-13T06:47:32.233Z,35.94
2022-09-13T06:50:01.037Z,34.71
2022-09-13T06:52:29.499Z,32.51
2022-09-13T06:54:57.643Z,36.10
2022-09-13T06:57:27.700Z,37.01
2022-09-13T06:59:55.819Z,34.13
2022-09-13T07:02:25.113Z,35.54
2022-09-13T07:04:53.357Z,34.51
2022-09-13T07:07:21.413Z,37.44
2022-09-13T07:09:49.556Z,36.41
2022-09-13T07:12:20.480Z,36.76
2022-09-13T07:14:50.337Z,37.43
2022-09-13T07:17:18.489Z,37.88
2022-09-13T07:19:46.557Z,38.76
2022-09-13T07:22:14.630Z,38.93
2022-09-13T07:24:42.883Z,39.70
2022-09-13T07:27:11.089Z,39.56
2022-09-13T07:29:39.224Z,39.89
2022-09-13T07:32:08.807Z,40.82
2022-09-13T07:34:36.969Z,40.61
2022-09-13T07:37:05.147Z,40.69
2022-09-13T07:39:33.270Z,40.85
2022-09-13T07:42:01.539Z,40.42
2022-09-13T07:44:29.645Z,41.04
2022-09-13T07:46:57.850Z,41.55
2022-09-13T07:49:27.455Z,41.74
2022-09-13T07:51:55.534Z,40.06
2022-09-13T07:54:23.638Z,40.27
2022-09-13T07:56:51.929Z,40.15
2022-09-13T07:59:20.824Z,40.67
2022-09-13T08:01:50.519Z,39.81
2022-09-13T08:04:21.464Z,40.77
2022-09-13T08:06:51.102Z,40.92
2022-09-13T08:09:19.390Z,40.11
2022-09-13T08:11:49.249Z,39.68
2022-09-13T08:14:19.319Z,41.42
2022-09-13T08:16:47.576Z,42.69
2022-09-13T08:19:18.250Z,42.71
2022-09-13T08:21:47.079Z,40.76
2022-09-13T08:24:18.490Z,41.42
2022-09-13T08:26:47.687Z,40.80
2022-09-13T08:29:17.007Z,40.10
2022-09-13T08:31:45.557Z,40.94
2022-09-13T08:34:14.818Z,40.23
2022-09-13T08:36:43.641Z,37.53
2022-09-13T08:39:13.925Z,37.16
2022-09-13T08:42:19.638Z,39.29
2022-09-13T08:44:50.282Z,38.98
2022-09-13T08:47:39.853Z,39.81
2022-09-13T08:50:15.624Z,39.76
2022-09-13T08:53:03.488Z,38.37
2022-09-13T08:55:43.288Z,37.04
2022-09-13T08:58:44.245Z,40.05
2022-09-13T09:01:22.807Z,38.14
2022-09-13T09:03:57.958Z,39.40
2022-09-13T09:06:26.570Z,38.54
2022-09-13T09:08:59.187Z,40.17
2022-09-13T09:11:46.301Z,41.73
2022-09-13T09:14:22.074Z,48.19
2022-09-13T09:16:54.034Z,47.80
2022-09-13T09:19:27.328Z,43.16
2022-09-13T09:21:55.458Z,46.38
2022-09-13T09:24:25.316Z,46.27
2022-09-13T09:26:55.175Z,45.40
2022-09-13T09:29:29.089Z,44.94
2022-09-13T09:32:11.033Z,46.04
2022-09-13T09:34:53.869Z,46.87
2022-09-13T09:37:25.157Z,47.83
2022-09-13T09:39:54.561Z,47.33
2022-09-13T09:42:26.371Z,47.37
2022-09-13T09:45:00.739Z,47.00
2022-09-13T09:47:33.069Z,47.41
2022-09-13T09:50:12.070Z,48.36
2022-09-13T09:52:45.856Z,48.03
2022-09-13T09:55:21.416Z,48.08
2022-09-13T09:57:54.692Z,47.36
2022-09-13T10:00:26.073Z,47.31
2022-09-13T10:02:58.480Z,46.62
2022-09-13T10:05:28.229Z,46.81
2022-09-13T10:07:59.421Z,45.27
2022-09-13T10:10:37.984Z,45.54
2022-09-13T10:13:09.420Z,46.39
2022-09-13T10:15:38.989Z,48.04
2022-09-13T10:18:43.914Z,49.16
2022-09-13T10:21:07.993Z,48.59
2022-09-13T10:23:37.243Z,47.31
2022-09-13T10:26:10.470Z,48.35
2022-09-13T10:28:46.122Z,48.34
2022-09-13T10:31:17.988Z,49.23
2022-09-13T10:33:54.427Z,48.85
2022-09-13T10:36:50.717Z,48.28
2022-09-13T10:39:19.098Z,47.41
2022-09-13T10:41:53.110Z,47.50
2022-09-13T10:44:41.467Z,47.42
2022-09-13T10:47:16.053Z,47.83
2022-09-13T10:49:49.019Z,47.67
2022-09-13T10:52:28.807Z,47.46
2022-09-13T10:54:57.396Z,48.30
2022-09-13T10:57:36.178Z,48.64
2022-09-13T11:00:09.125Z,48.05
2022-09-13T11:02:55.855Z,47.39
2022-09-13T11:05:27.974Z,47.72
2022-09-13T11:08:13.800Z,47.89
2022-09-13T11:10:53.649Z,46.58
2022-09-13T11:13:32.450Z,46.35
2022-09-13T11:16:14.231Z,46.78
2022-09-13T11:19:08.348Z,47.21
2022-09-13T11:21:49.045Z,45.80
2022-09-13T11:24:44.460Z,45.92
2022-09-13T11:27:21.606Z,46.53
2022-09-13T11:30:06.061Z,46.54
2022-09-13T11:32:48.115Z,48.45
2022-09-13T11:35:35.970Z,48.81
2022-09-13T11:38:14.199Z,48.36
2022-09-13T11:40:53.149Z,47.22
2022-09-13T11:43:42.184Z,46.98
2022-09-13T11:46:20.629Z,46.67
2022-09-13T11:49:29.013Z,47.32
2022-09-13T11:52:10.047Z,47.51
2022-09-13T11:54:55.356Z,46.99
2022-09-13T11:57:28.735Z,47.47
2022-09-13T12:00:01.641Z,47.49
2022-09-13T12:02:41.721Z,47.05
2022-09-13T12:05:22.516Z,45.48
2022-09-13T12:07:56.881Z,46.48
2022-09-13T12:10:29.143Z,45.75
2022-09-13T12:13:01.078Z,46.93
2022-09-13T12:15:38.015Z,47.26
2022-09-13T12:18:13.405Z,48.17
2022-09-13T12:20:45.627Z,48.21
2022-09-13T12:23:18.262Z,47.64
2022-09-13T12:25:52.679Z,47.41
2022-09-13T12:28:27.528Z,47.62
2022-09-13T12:31:01.690Z,47.27
2022-09-13T12:33:29.926Z,47.48
2022-09-13T12:36:23.531Z,47.33
2022-09-13T12:39:15.719Z,47.72
2022-09-13T12:42:12.361Z,47.90
2022-09-13T12:44:56.451Z,47.95
2022-09-13T12:47:50.761Z,47.37
2022-09-13T12:50:46.645Z,47.07
2022-09-13T12:53:36.138Z,47.17
2022-09-13T12:56:31.387Z,46.85
2022-09-13T12:59:29.103Z,47.53
2022-09-13T13:01:58.457Z,46.68
2022-09-13T13:04:30.592Z,47.29
2022-09-13T13:07:01.925Z,47.56
2022-09-13T13:09:41.107Z,48.37
2022-09-13T13:12:11.952Z,49.65
2022-09-13T13:14:53.854Z,49.91
2022-09-13T13:17:46.786Z,50.57
2022-09-13T13:20:48.233Z,50.46
2022-09-13T13:23:23.621Z,50.30
2022-09-13T13:26:36.727Z,51.01
2022-09-13T13:29:19.076Z,51.42
2022-09-13T13:32:04.127Z,51.82
2022-09-13T13:34:44.334Z,51.62
2022-09-13T13:37:38.197Z,50.48
2022-09-13T13:40:25.937Z,50.46
2022-09-13T13:43:31.686Z,49.52
2022-09-13T13:46:26.711Z,49.67
2022-09-13T13:48:55.161Z,48.72
2022-09-13T13:51:25.933Z,48.54
2022-09-13T13:54:01.708Z,49.00
2022-09-13T13:56:49.208Z,48.49
2022-09-13T13:59:32.113Z,48.92
2022-09-13T14:02:02.799Z,48.87
2022-09-13T14:05:08.238Z,49.84
2022-09-13T14:08:28.310Z,50.35
2022-09-13T14:11:03.225Z,50.64
2022-09-13T14:13:56.831Z,51.36
2022-09-13T14:16:39.305Z,51.40
2022-09-13T14:19:24.137Z,51.30
2022-09-13T14:22:16.997Z,52.11
2022-09-13T14:24:48.914Z,52.10
2022-09-13T14:27:24.525Z,52.09
2022-09-13T14:29:54.733Z,51.77
2022-09-13T14:32:25.969Z,52.97
2022-09-13T14:35:01.523Z,52.65
2022-09-13T14:37:32.251Z,52.25
2022-09-13T14:40:04.513Z,51.93
2022-09-13T14:42:43.654Z,51.86
2022-09-13T14:45:15.039Z,51.88
2022-09-13T14:47:52.431Z,51.42
2022-09-13T14:50:26.058Z,51.69
2022-09-13T14:52:57.569Z,52.17
2022-09-13T14:55:29.534Z,51.61
2022-09-13T14:58:03.534Z,52.02
2022-09-13T15:00:34.203Z,52.08
2022-09-13T15:03:13.113Z,52.13
2022-09-13T15:05:42.951Z,52.32
2022-09-13T15:08:45.066Z,52.04
2022-09-13T15:11:27.519Z,51.95
2022-09-13T15:14:18.484Z,52.19
2022-09-13T15:16:51.126Z,52.43
2022-09-13T15:19:38.997Z,51.93
2022-09-13T15:22:19.976Z,52.10
2022-09-13T15:24:51.309Z,52.58
2022-09-13T15:27:23.460Z,52.72
2022-09-13T15:29:56.906Z,53.03
2022-09-13T15:32:31.747Z,53.59
2022-09-13T15:35:01.823Z,54.19
2022-09-13T15:37:34.357Z,53.68
2022-09-13T15:40:23.928Z,54.03
2022-09-13T15:42:53.995Z,54.07
2022-09-13T15:45:23.443Z,54.90
2022-09-13T15:47:53.735Z,54.85
2022-09-13T15:50:26.945Z,54.75
2022-09-13T15:52:57.682Z,54.89
2022-09-13T15:55:27.285Z,55.58
2022-09-13T15:57:56.163Z,55.46
2022-09-13T16:00:27.163Z,55.74
2022-09-13T16:02:55.582Z,55.77
2022-09-13T16:05:23.952Z,55.04
2022-09-13T16:07:54.140Z,54.68
2022-09-13T16:10:24.424Z,54.24
2022-09-13T16:12:52.767Z,55.00
2022-09-13T16:15:20.938Z,55.72
2022-09-13T16:17:49.033Z,56.21
2022-09-13T16:20:18.230Z,56.22
2022-09-13T16:22:46.329Z,57.43
2022-09-13T16:25:15.560Z,57.57
2022-09-13T16:27:45.979Z,57.33
2022-09-13T16:30:16.545Z,57.55
2022-09-13T16:32:44.687Z,57.72
2022-09-13T16:35:13.897Z,58.08
2022-09-13T16:37:43.054Z,58.20
2022-09-13T16:40:12.457Z,58.71
2022-09-13T16:42:40.686Z,60.18
2022-09-13T16:45:11.967Z,60.73
2022-09-13T16:47:41.311Z,60.80
2022-09-13T16:50:11.163Z,61.52
2022-09-13T16:52:39.639Z,61.63
2022-09-13T16:55:09.407Z,61.50
2022-09-13T16:57:37.658Z,61.43
2022-09-13T17:00:09.106Z,60.96
2022-09-13T17:02:39.413Z,62.13
2022-09-13T17:05:08.582Z,61.78
2022-09-13T17:07:37.135Z,62.34
2022-09-13T17:10:07.187Z,62.65
2022-09-13T17:12:35.946Z,62.80
2022-09-13T17:15:04.297Z,63.12
2022-09-13T17:17:36.222Z,62.91
2022-09-13T17:20:10.279Z,63.83
2022-09-13T17:22:38.382Z,64.60
2022-09-13T17:25:07.980Z,64.71
2022-09-13T17:27:36.481Z,64.89
2022-09-13T17:30:05.394Z,64.74
2022-09-13T17:32:33.527Z,65.17
2022-09-13T17:35:01.738Z,65.14
2022-09-13T17:37:31.360Z,64.14
2022-09-13T17:39:59.573Z,64.92
2022-09-13T17:42:28.038Z,65.49
2022-09-13T17:44:56.112Z,66.19
2022-09-13T17:47:24.251Z,67.05
2022-09-13T17:49:52.483Z,67.02
2022-09-13T17:52:20.578Z,66.99
2022-09-13T17:54:50.362Z,66.60
2022-09-13T17:57:18.459Z,67.02
2022-09-13T17:59:47.417Z,67.01
2022-09-13T18:02:15.657Z,66.95
2022-09-13T18:04:43.829Z,67.75
2022-09-13T18:07:12.737Z,67.83
2022-09-13T18:09:41.490Z,67.69
2022-09-13T18:12:11.805Z,67.66
2022-09-13T18:14:40.027Z,67.82
2022-09-13T18:17:13.161Z,67.50
2022-09-13T18:19:46.239Z,68.02
2022-09-13T18:22:14.987Z,68.17
2022-09-13T18:24:43.677Z,67.92
2022-09-13T18:27:13.340Z,67.77
2022-09-13T18:29:41.436Z,67.43
2022-09-13T18:32:09.761Z,67.06
2022-09-13T18:34:38.091Z,67.22
2022-09-13T18:37:06.284Z,66.64
2022-09-13T18:39:34.717Z,65.75
2022-09-13T18:42:03.677Z,65.88
2022-09-13T18:44:34.089Z,65.30
2022-09-13T18:47:04.080Z,65.73
2022-09-13T18:49:35.369Z,66.22
2022-09-13T18:52:03.911Z,66.21
2022-09-13T18:54:33.015Z,65.44
2022-09-13T18:57:01.205Z,66.04
2022-09-13T18:59:32.261Z,66.34
2022-09-13T19:02:01.865Z,66.12
2022-09-13T19:04:30.084Z,66.10
2022-09-13T19:07:03.346Z,65.38
2022-09-13T19:09:31.749Z,66.06
2022-09-13T19:11:59.961Z,66.16
2022-09-13T19:14:29.708Z,66.25
2022-09-13T19:17:01.298Z,66.63
2022-09-13T19:19:32.801Z,66.84
2022-09-13T19:22:00.929Z,66.95
2022-09-13T19:24:29.179Z,66.88
2022-09-13T19:26:57.307Z,66.89
2022-09-13T19:29:26.922Z,67.08
2022-09-13T19:31:56.145Z,67.24
2022-09-13T19:34:24.747Z,67.12
2022-09-13T19:36:58.047Z,67.11
2022-09-13T19:39:29.604Z,67.40
2022-09-13T19:41:58.685Z,67.45
2022-09-13T19:44:26.850Z,67.01
2022-09-13T19:47:29.361Z,66.88
2022-09-13T19:49:43.321Z,66.71
2022-09-13T19:52:12.921Z,66.70
2022-09-13T19:54:41.084Z,67.50
2022-09-13T19:57:10.028Z,67.21
2022-09-13T19:59:38.267Z,66.66
2022-09-13T20:02:07.077Z,66.65
2022-09-13T20:04:35.641Z,66.90
2022-09-13T20:07:04.052Z,66.77
2022-09-13T20:09:33.727Z,66.89
2022-09-13T20:12:01.863Z,66.56
2022-09-13T20:14:30.148Z,66.86
2022-09-13T20:16:59.199Z,66.18
2022-09-13T20:19:41.028Z,66.46
2022-09-13T20:22:10.012Z,66.03
2022-09-13T20:24:39.567Z,66.10
2022-09-13T20:27:08.200Z,65.34
2022-09-13T20:29:36.606Z,65.78
2022-09-13T20:32:05.047Z,65.41
2022-09-13T20:34:35.229Z,65.62
2022-09-13T20:37:03.523Z,65.73
2022-09-13T20:39:31.855Z,65.66
2022-09-13T20:42:01.563Z,65.89
2022-09-13T20:44:29.713Z,65.88
2022-09-13T20:46:57.910Z,66.05
2022-09-13T20:49:26.464Z,66.28
2022-09-13T20:51:54.567Z,66.34
2022-09-13T20:54:22.724Z,66.01
2022-09-13T20:56:50.984Z,65.64
2022-09-13T20:59:21.290Z,66.39
2022-09-13T21:01:49.962Z,66.90
2022-09-13T21:04:18.505Z,66.85
2022-09-13T21:07:00.559Z,67.04
2022-09-13T21:09:28.913Z,67.44
2022-09-13T21:11:57.108Z,66.81
2022-09-13T21:14:26.623Z,67.06
2022-09-13T21:16:55.358Z,67.24
2022-09-13T21:19:23.548Z,67.30
2022-09-13T21:21:51.743Z,68.02
2022-09-13T21:24:20.059Z,68.67
2022-09-13T21:26:48.315Z,69.14
2022-09-13T21:29:16.584Z,69.15
2022-09-13T21:31:46.265Z,69.34
2022-09-13T21:34:16.466Z,69.56
2022-09-13T21:36:45.943Z,69.95
2022-09-13T21:39:15.044Z,70.20
2022-09-13T21:41:43.551Z,70.70
2022-09-13T21:44:12.002Z,71.40
2022-09-13T21:46:41.248Z,71.55
2022-09-13T21:49:12.240Z,71.69
2022-09-13T21:51:42.246Z,71.73
2022-09-13T21:54:12.533Z,72.50
2022-09-13T21:56:42.430Z,73.22
2022-09-13T21:59:14.513Z,73.31
2022-09-13T22:01:46.580Z,73.70
2022-09-13T22:04:18.595Z,74.27
2022-09-13T22:06:48.526Z,74.43
2022-09-13T22:09:17.135Z,74.65
2022-09-13T22:11:47.368Z,74.97
2022-09-13T22:14:17.085Z,75.09
2022-09-13T22:16:46.845Z,75.63
2022-09-13T22:19:18.558Z,75.82
2022-09-13T22:21:48.712Z,75.96
2022-09-13T22:24:18.520Z,76.31
2022-09-13T22:26:47.861Z,76.50
2022-09-13T22:29:16.821Z,76.26
2022-09-13T22:31:47.197Z,76.28
2022-09-13T22:34:18.519Z,76.42
2022-09-13T22:36:46.782Z,76.47
2022-09-13T22:39:17.207Z,76.57
2022-09-13T22:41:46.132Z,76.64
2022-09-13T22:44:15.596Z,76.87
2022-09-13T22:46:45.729Z,77.21
2022-09-13T22:49:15.711Z,76.83
2022-09-13T22:51:46.205Z,77.11
2022-09-13T22:54:15.272Z,76.91
2022-09-13T22:56:43.580Z,76.76
2022-09-13T22:59:17.631Z,77.13
2022-09-13T23:01:46.607Z,77.24
2022-09-13T23:04:15.291Z,77.61
2022-09-13T23:06:48.175Z,77.80
2022-09-13T23:09:19.586Z,78.37
2022-09-13T23:11:48.145Z,78.17
2022-09-13T23:14:20.105Z,77.52
2022-09-13T23:16:51.392Z,77.19
2022-09-13T23:19:21.970Z,76.89
2022-09-13T23:21:54.178Z,76.15
2022-09-13T23:24:24.239Z,75.40
2022-09-13T23:26:55.129Z,74.83
2022-09-13T23:29:23.375Z,74.17
2022-09-13T23:31:52.049Z,74.32
2022-09-13T23:34:20.780Z,73.52
2022-09-13T23:36:48.871Z,73.37
2022-09-13T23:39:20.445Z,73.58
2022-09-13T23:41:50.689Z,73.60
2022-09-13T23:44:19.272Z,73.15
2022-09-13T23:46:47.408Z,72.96
2022-09-13T23:49:15.699Z,72.54
2022-09-13T23:51:43.935Z,72.22
2022-09-13T23:54:13.484Z,71.66
2022-09-13T23:56:43.312Z,71.08
2022-09-13T23:59:12.940Z,70.77
